sensor_id;sensor_type;location;lat;lon;timestamp;P1;durP1;ratioP1;P2;durP2;ratioP2
70757;SDS011;59316;52.964;7.102;2023-07-31T00:01:01;3.20;;;1.75;;
70757;SDS011;59316;52.964;7.102;2023-07-31T00:06:22;3.90;;;1.60;;
70757;SDS011;59316;52.964;7.102;2023-07-31T00:11:44;4.85;;;2.22;;
70757;SDS011;59316;52.964;7.102;2023-07-31T00:17:05;6.40;;;2.67;;
70757;SDS011;59316;52.964;7.102;2023-07-31T00:22:27;3.83;;;2.10;;
70757;SDS011;59316;52.964;7.102;2023-07-31T00:27:48;4.68;;;2.25;;
70757;SDS011;59316;52.964;7.102;2023-07-31T00:33:09;5.10;;;2.40;;
70757;SDS011;59316;52.964;7.102;2023-07-31T00:38:30;4.70;;;2.35;;
70757;SDS011;59316;52.964;7.102;2023-07-31T00:43:52;5.13;;;2.28;;
70757;SDS011;59316;52.964;7.102;2023-07-31T00:49:14;4.35;;;2.08;;
70757;SDS011;59316;52.964;7.102;2023-07-31T00:54:36;5.45;;;2.60;;
70757;SDS011;59316;52.964;7.102;2023-07-31T00:59:58;3.72;;;2.30;;
70757;SDS011;59316;52.964;7.102;2023-07-31T01:05:20;4.93;;;2.97;;
70757;SDS011;59316;52.964;7.102;2023-07-31T01:11:27;6.38;;;2.97;;
70757;SDS011;59316;52.964;7.102;2023-07-31T01:16:50;3.60;;;2.58;;
70757;SDS011;59316;52.964;7.102;2023-07-31T01:22:16;3.80;;;2.30;;
70757;SDS011;59316;52.964;7.102;2023-07-31T01:28:19;3.95;;;2.70;;
70757;SDS011;59316;52.964;7.102;2023-07-31T01:33:46;4.47;;;2.30;;
70757;SDS011;59316;52.964;7.102;2023-07-31T01:39:09;5.60;;;2.13;;
70757;SDS011;59316;52.964;7.102;2023-07-31T01:44:30;3.03;;;2.20;;
70757;SDS011;59316;52.964;7.102;2023-07-31T01:49:52;3.45;;;2.05;;
70757;SDS011;59316;52.964;7.102;2023-07-31T01:55:13;3.13;;;1.90;;
70757;SDS011;59316;52.964;7.102;2023-07-31T02:00:36;4.30;;;1.90;;
70757;SDS011;59316;52.964;7.102;2023-07-31T02:05:57;4.82;;;1.40;;
70757;SDS011;59316;52.964;7.102;2023-07-31T02:11:19;5.32;;;1.73;;
70757;SDS011;59316;52.964;7.102;2023-07-31T02:16:42;2.25;;;1.27;;
70757;SDS011;59316;52.964;7.102;2023-07-31T02:22:04;4.65;;;1.40;;
70757;SDS011;59316;52.964;7.102;2023-07-31T02:27:25;1.50;;;1.20;;
70757;SDS011;59316;52.964;7.102;2023-07-31T02:32:47;2.20;;;1.10;;
70757;SDS011;59316;52.964;7.102;2023-07-31T02:38:09;1.30;;;0.80;;
70757;SDS011;59316;52.964;7.102;2023-07-31T02:43:30;2.53;;;0.80;;
70757;SDS011;59316;52.964;7.102;2023-07-31T02:48:52;2.38;;;0.98;;
70757;SDS011;59316;52.964;7.102;2023-07-31T02:54:14;2.10;;;1.08;;
70757;SDS011;59316;52.964;7.102;2023-07-31T02:59:35;2.33;;;1.50;;
70757;SDS011;59316;52.964;7.102;2023-07-31T03:04:57;2.95;;;1.75;;
70757;SDS011;59316;52.964;7.102;2023-07-31T03:10:20;2.90;;;1.60;;
70757;SDS011;59316;52.964;7.102;2023-07-31T03:15:44;2.28;;;1.60;;
70757;SDS011;59316;52.964;7.102;2023-07-31T03:21:05;2.38;;;1.40;;
70757;SDS011;59316;52.964;7.102;2023-07-31T03:26:27;1.77;;;1.20;;
70757;SDS011;59316;52.964;7.102;2023-07-31T03:31:48;1.67;;;1.38;;
70757;SDS011;59316;52.964;7.102;2023-07-31T03:37:10;4.60;;;1.58;;
70757;SDS011;59316;52.964;7.102;2023-07-31T03:42:31;3.53;;;1.40;;
70757;SDS011;59316;52.964;7.102;2023-07-31T03:47:52;2.85;;;1.65;;
70757;SDS011;59316;52.964;7.102;2023-07-31T03:53:14;2.08;;;1.50;;
70757;SDS011;59316;52.964;7.102;2023-07-31T03:58:35;3.92;;;1.70;;
70757;SDS011;59316;52.964;7.102;2023-07-31T04:03:57;2.10;;;1.45;;
70757;SDS011;59316;52.964;7.102;2023-07-31T04:09:18;3.47;;;1.42;;
70757;SDS011;59316;52.964;7.102;2023-07-31T04:14:39;2.13;;;1.70;;
70757;SDS011;59316;52.964;7.102;2023-07-31T04:20:00;3.10;;;1.95;;
70757;SDS011;59316;52.964;7.102;2023-07-31T04:25:21;3.30;;;1.70;;
70757;SDS011;59316;52.964;7.102;2023-07-31T04:30:43;2.10;;;1.60;;
70757;SDS011;59316;52.964;7.102;2023-07-31T04:36:04;2.20;;;1.77;;
70757;SDS011;59316;52.964;7.102;2023-07-31T04:41:26;2.25;;;1.70;;
70757;SDS011;59316;52.964;7.102;2023-07-31T04:46:48;2.60;;;1.60;;
70757;SDS011;59316;52.964;7.102;2023-07-31T04:52:09;1.77;;;1.42;;
70757;SDS011;59316;52.964;7.102;2023-07-31T04:57:31;3.17;;;1.23;;
70757;SDS011;59316;52.964;7.102;2023-07-31T05:02:52;2.13;;;1.33;;
70757;SDS011;59316;52.964;7.102;2023-07-31T05:08:14;3.67;;;1.50;;
70757;SDS011;59316;52.964;7.102;2023-07-31T05:13:35;3.15;;;1.00;;
70757;SDS011;59316;52.964;7.102;2023-07-31T05:18:56;1.98;;;0.93;;
70757;SDS011;59316;52.964;7.102;2023-07-31T05:24:18;1.30;;;1.00;;
70757;SDS011;59316;52.964;7.102;2023-07-31T05:29:40;2.33;;;0.90;;
70757;SDS011;59316;52.964;7.102;2023-07-31T05:35:01;2.28;;;0.90;;
70757;SDS011;59316;52.964;7.102;2023-07-31T05:40:23;2.50;;;1.00;;
70757;SDS011;59316;52.964;7.102;2023-07-31T05:45:44;2.15;;;1.02;;
70757;SDS011;59316;52.964;7.102;2023-07-31T05:51:06;5.70;;;2.45;;
70757;SDS011;59316;52.964;7.102;2023-07-31T05:56:27;7.55;;;2.80;;
70757;SDS011;59316;52.964;7.102;2023-07-31T06:01:48;9.43;;;3.63;;
70757;SDS011;59316;52.964;7.102;2023-07-31T06:07:10;14.50;;;5.00;;
70757;SDS011;59316;52.964;7.102;2023-07-31T06:12:32;15.38;;;4.85;;
70757;SDS011;59316;52.964;7.102;2023-07-31T06:17:53;14.63;;;5.03;;
70757;SDS011;59316;52.964;7.102;2023-07-31T06:23:15;18.88;;;6.07;;
70757;SDS011;59316;52.964;7.102;2023-07-31T06:28:36;14.05;;;6.03;;
70757;SDS011;59316;52.964;7.102;2023-07-31T06:33:58;17.58;;;6.00;;
70757;SDS011;59316;52.964;7.102;2023-07-31T06:39:19;24.70;;;7.20;;
70757;SDS011;59316;52.964;7.102;2023-07-31T06:44:40;23.60;;;7.25;;
70757;SDS011;59316;52.964;7.102;2023-07-31T06:50:02;21.60;;;7.22;;
70757;SDS011;59316;52.964;7.102;2023-07-31T06:55:23;27.83;;;8.00;;
70757;SDS011;59316;52.964;7.102;2023-07-31T07:00:46;22.52;;;9.45;;
70757;SDS011;59316;52.964;7.102;2023-07-31T07:06:07;27.65;;;8.45;;
70757;SDS011;59316;52.964;7.102;2023-07-31T07:11:28;22.55;;;8.45;;
70757;SDS011;59316;52.964;7.102;2023-07-31T07:16:52;23.80;;;8.43;;
70757;SDS011;59316;52.964;7.102;2023-07-31T07:22:14;30.40;;;9.55;;
70757;SDS011;59316;52.964;7.102;2023-07-31T07:27:35;26.55;;;8.98;;
70757;SDS011;59316;52.964;7.102;2023-07-31T07:32:58;25.77;;;8.32;;
70757;SDS011;59316;52.964;7.102;2023-07-31T07:38:19;22.02;;;7.90;;
70757;SDS011;59316;52.964;7.102;2023-07-31T07:43:42;22.65;;;6.65;;
70757;SDS011;59316;52.964;7.102;2023-07-31T07:49:03;15.30;;;5.60;;
70757;SDS011;59316;52.964;7.102;2023-07-31T07:54:25;13.20;;;5.45;;
70757;SDS011;59316;52.964;7.102;2023-07-31T07:59:47;9.43;;;4.45;;
70757;SDS011;59316;52.964;7.102;2023-07-31T08:05:08;13.00;;;4.35;;
70757;SDS011;59316;52.964;7.102;2023-07-31T08:10:30;10.70;;;4.40;;
70757;SDS011;59316;52.964;7.102;2023-07-31T08:15:51;9.48;;;4.57;;
70757;SDS011;59316;52.964;7.102;2023-07-31T08:21:12;7.18;;;3.83;;
70757;SDS011;59316;52.964;7.102;2023-07-31T08:26:34;10.18;;;4.50;;
70757;SDS011;59316;52.964;7.102;2023-07-31T08:31:55;9.70;;;4.40;;
70757;SDS011;59316;52.964;7.102;2023-07-31T08:37:17;13.32;;;5.13;;
70757;SDS011;59316;52.964;7.102;2023-07-31T08:42:47;9.85;;;4.43;;
70757;SDS011;59316;52.964;7.102;2023-07-31T08:48:15;9.07;;;4.40;;
70757;SDS011;59316;52.964;7.102;2023-07-31T08:53:38;8.07;;;3.55;;
70757;SDS011;59316;52.964;7.102;2023-07-31T08:59:00;4.78;;;2.92;;
70757;SDS011;59316;52.964;7.102;2023-07-31T09:04:23;7.32;;;3.75;;
70757;SDS011;59316;52.964;7.102;2023-07-31T09:09:46;6.18;;;2.97;;
70757;SDS011;59316;52.964;7.102;2023-07-31T09:15:07;5.75;;;2.72;;
70757;SDS011;59316;52.964;7.102;2023-07-31T09:20:47;5.60;;;3.00;;
70757;SDS011;59316;52.964;7.102;2023-07-31T09:26:28;3.78;;;2.35;;
70757;SDS011;59316;52.964;7.102;2023-07-31T09:31:50;4.88;;;2.58;;
70757;SDS011;59316;52.964;7.102;2023-07-31T09:37:12;4.57;;;2.65;;
70757;SDS011;59316;52.964;7.102;2023-07-31T09:42:34;3.40;;;2.03;;
70757;SDS011;59316;52.964;7.102;2023-07-31T09:47:56;2.70;;;1.70;;
70757;SDS011;59316;52.964;7.102;2023-07-31T09:53:18;2.20;;;1.40;;
70757;SDS011;59316;52.964;7.102;2023-07-31T09:58:39;3.58;;;1.48;;
70757;SDS011;59316;52.964;7.102;2023-07-31T10:04:01;1.60;;;1.40;;
70757;SDS011;59316;52.964;7.102;2023-07-31T10:09:23;1.88;;;1.20;;
70757;SDS011;59316;52.964;7.102;2023-07-31T10:14:48;2.30;;;0.90;;
70757;SDS011;59316;52.964;7.102;2023-07-31T10:20:10;2.85;;;0.90;;
70757;SDS011;59316;52.964;7.102;2023-07-31T10:25:31;1.27;;;0.90;;
70757;SDS011;59316;52.964;7.102;2023-07-31T10:30:53;1.40;;;0.90;;
70757;SDS011;59316;52.964;7.102;2023-07-31T10:36:19;1.10;;;0.80;;
70757;SDS011;59316;52.964;7.102;2023-07-31T10:41:41;1.10;;;0.75;;
70757;SDS011;59316;52.964;7.102;2023-07-31T10:47:02;1.20;;;1.00;;
70757;SDS011;59316;52.964;7.102;2023-07-31T10:52:24;0.90;;;0.70;;
70757;SDS011;59316;52.964;7.102;2023-07-31T10:57:47;1.73;;;1.23;;
70757;SDS011;59316;52.964;7.102;2023-07-31T11:03:09;1.60;;;1.30;;
70757;SDS011;59316;52.964;7.102;2023-07-31T11:08:45;1.77;;;1.50;;
70757;SDS011;59316;52.964;7.102;2023-07-31T11:14:10;2.45;;;1.63;;
70757;SDS011;59316;52.964;7.102;2023-07-31T11:19:32;2.20;;;1.70;;
70757;SDS011;59316;52.964;7.102;2023-07-31T11:24:53;1.90;;;1.55;;
70757;SDS011;59316;52.964;7.102;2023-07-31T11:30:15;1.60;;;1.50;;
70757;SDS011;59316;52.964;7.102;2023-07-31T11:41:07;1.73;;;1.50;;
70757;SDS011;59316;52.964;7.102;2023-07-31T11:46:30;3.47;;;1.83;;
70757;SDS011;59316;52.964;7.102;2023-07-31T11:51:52;4.22;;;1.52;;
70757;SDS011;59316;52.964;7.102;2023-07-31T11:57:13;2.13;;;1.60;;
70757;SDS011;59316;52.964;7.102;2023-07-31T12:02:35;2.60;;;1.35;;
70757;SDS011;59316;52.964;7.102;2023-07-31T12:07:57;2.25;;;1.52;;
70757;SDS011;59316;52.964;7.102;2023-07-31T12:13:25;1.38;;;1.20;;
70757;SDS011;59316;52.964;7.102;2023-07-31T12:18:49;1.63;;;1.15;;
70757;SDS011;59316;52.964;7.102;2023-07-31T12:24:10;1.45;;;1.02;;
70757;SDS011;59316;52.964;7.102;2023-07-31T12:29:35;1.70;;;0.82;;
70757;SDS011;59316;52.964;7.102;2023-07-31T12:35:00;3.78;;;0.80;;
70757;SDS011;59316;52.964;7.102;2023-07-31T12:40:22;1.17;;;0.73;;
70757;SDS011;59316;52.964;7.102;2023-07-31T12:45:53;0.95;;;0.70;;
70757;SDS011;59316;52.964;7.102;2023-07-31T12:51:15;2.08;;;1.20;;
70757;SDS011;59316;52.964;7.102;2023-07-31T12:56:37;4.65;;;1.58;;
70757;SDS011;59316;52.964;7.102;2023-07-31T13:01:59;2.10;;;1.35;;
70757;SDS011;59316;52.964;7.102;2023-07-31T13:07:20;2.22;;;0.98;;
70757;SDS011;59316;52.964;7.102;2023-07-31T13:12:42;3.28;;;1.52;;
70757;SDS011;59316;52.964;7.102;2023-07-31T13:18:04;2.78;;;1.08;;
70757;SDS011;59316;52.964;7.102;2023-07-31T13:23:25;3.80;;;1.30;;
70757;SDS011;59316;52.964;7.102;2023-07-31T13:28:47;2.65;;;1.90;;
70757;SDS011;59316;52.964;7.102;2023-07-31T13:34:09;3.50;;;1.83;;
70757;SDS011;59316;52.964;7.102;2023-07-31T13:39:30;3.17;;;1.63;;
70757;SDS011;59316;52.964;7.102;2023-07-31T13:44:51;5.15;;;1.90;;
70757;SDS011;59316;52.964;7.102;2023-07-31T13:50:13;2.75;;;1.60;;
70757;SDS011;59316;52.964;7.102;2023-07-31T13:55:34;2.60;;;1.58;;
70757;SDS011;59316;52.964;7.102;2023-07-31T14:00:55;3.28;;;1.65;;
70757;SDS011;59316;52.964;7.102;2023-07-31T14:06:17;5.32;;;1.98;;
70757;SDS011;59316;52.964;7.102;2023-07-31T14:11:38;5.70;;;1.73;;
70757;SDS011;59316;52.964;7.102;2023-07-31T14:17:02;4.60;;;2.05;;
70757;SDS011;59316;52.964;7.102;2023-07-31T14:22:28;5.45;;;2.05;;
70757;SDS011;59316;52.964;7.102;2023-07-31T14:27:50;3.63;;;2.22;;
70757;SDS011;59316;52.964;7.102;2023-07-31T14:33:11;3.97;;;2.28;;
70757;SDS011;59316;52.964;7.102;2023-07-31T14:38:32;5.88;;;2.28;;
70757;SDS011;59316;52.964;7.102;2023-07-31T14:43:53;4.88;;;2.08;;
70757;SDS011;59316;52.964;7.102;2023-07-31T14:49:14;3.90;;;2.10;;
70757;SDS011;59316;52.964;7.102;2023-07-31T14:54:36;3.53;;;1.98;;
70757;SDS011;59316;52.964;7.102;2023-07-31T14:59:57;3.85;;;1.85;;
70757;SDS011;59316;52.964;7.102;2023-07-31T15:05:18;6.75;;;2.20;;
70757;SDS011;59316;52.964;7.102;2023-07-31T15:10:39;3.75;;;2.15;;
70757;SDS011;59316;52.964;7.102;2023-07-31T15:16:00;5.00;;;2.40;;
70757;SDS011;59316;52.964;7.102;2023-07-31T15:21:22;5.72;;;2.35;;
70757;SDS011;59316;52.964;7.102;2023-07-31T15:26:43;5.93;;;2.80;;
70757;SDS011;59316;52.964;7.102;2023-07-31T15:32:05;7.03;;;2.67;;
70757;SDS011;59316;52.964;7.102;2023-07-31T15:37:26;5.70;;;2.50;;
70757;SDS011;59316;52.964;7.102;2023-07-31T15:42:48;4.13;;;2.42;;
70757;SDS011;59316;52.964;7.102;2023-07-31T15:48:09;5.57;;;2.58;;
70757;SDS011;59316;52.964;7.102;2023-07-31T15:53:31;4.63;;;2.25;;
70757;SDS011;59316;52.964;7.102;2023-07-31T15:58:52;6.20;;;2.50;;
70757;SDS011;59316;52.964;7.102;2023-07-31T16:04:13;4.30;;;2.53;;
70757;SDS011;59316;52.964;7.102;2023-07-31T16:09:34;5.35;;;2.20;;
70757;SDS011;59316;52.964;7.102;2023-07-31T16:14:55;3.40;;;2.17;;
70757;SDS011;59316;52.964;7.102;2023-07-31T16:20:16;5.60;;;3.25;;
70757;SDS011;59316;52.964;7.102;2023-07-31T16:25:37;4.38;;;2.80;;
70757;SDS011;59316;52.964;7.102;2023-07-31T16:30:59;2.83;;;2.15;;
70757;SDS011;59316;52.964;7.102;2023-07-31T16:36:20;4.32;;;2.80;;
70757;SDS011;59316;52.964;7.102;2023-07-31T16:41:41;3.72;;;2.75;;
70757;SDS011;59316;52.964;7.102;2023-07-31T16:47:02;4.55;;;2.60;;
70757;SDS011;59316;52.964;7.102;2023-07-31T16:52:24;4.10;;;3.17;;
70757;SDS011;59316;52.964;7.102;2023-07-31T16:57:45;4.65;;;3.10;;
70757;SDS011;59316;52.964;7.102;2023-07-31T17:03:06;3.47;;;2.60;;
70757;SDS011;59316;52.964;7.102;2023-07-31T17:08:28;3.28;;;2.95;;
70757;SDS011;59316;52.964;7.102;2023-07-31T17:13:50;4.00;;;2.83;;
70757;SDS011;59316;52.964;7.102;2023-07-31T17:19:11;4.45;;;2.90;;
70757;SDS011;59316;52.964;7.102;2023-07-31T17:24:33;4.05;;;3.10;;
70757;SDS011;59316;52.964;7.102;2023-07-31T17:29:55;4.07;;;3.00;;
70757;SDS011;59316;52.964;7.102;2023-07-31T17:35:16;4.72;;;2.40;;
70757;SDS011;59316;52.964;7.102;2023-07-31T17:40:38;2.83;;;2.13;;
70757;SDS011;59316;52.964;7.102;2023-07-31T17:46:01;2.42;;;2.10;;
70757;SDS011;59316;52.964;7.102;2023-07-31T17:51:24;3.38;;;2.13;;
70757;SDS011;59316;52.964;7.102;2023-07-31T17:56:45;2.45;;;1.75;;
70757;SDS011;59316;52.964;7.102;2023-07-31T18:02:06;3.13;;;1.73;;
70757;SDS011;59316;52.964;7.102;2023-07-31T18:07:27;2.55;;;1.30;;
70757;SDS011;59316;52.964;7.102;2023-07-31T18:12:49;3.08;;;1.15;;
70757;SDS011;59316;52.964;7.102;2023-07-31T18:18:10;1.55;;;1.00;;
70757;SDS011;59316;52.964;7.102;2023-07-31T18:23:31;1.75;;;1.10;;
70757;SDS011;59316;52.964;7.102;2023-07-31T18:28:52;1.90;;;1.17;;
70757;SDS011;59316;52.964;7.102;2023-07-31T18:34:13;1.98;;;1.00;;
70757;SDS011;59316;52.964;7.102;2023-07-31T18:39:34;1.45;;;1.00;;
70757;SDS011;59316;52.964;7.102;2023-07-31T18:44:55;3.10;;;1.20;;
70757;SDS011;59316;52.964;7.102;2023-07-31T18:50:16;4.47;;;1.13;;
70757;SDS011;59316;52.964;7.102;2023-07-31T18:55:41;3.05;;;1.25;;
70757;SDS011;59316;52.964;7.102;2023-07-31T19:01:02;1.88;;;1.50;;
70757;SDS011;59316;52.964;7.102;2023-07-31T19:06:24;2.30;;;1.50;;
70757;SDS011;59316;52.964;7.102;2023-07-31T19:11:45;2.22;;;1.48;;
70757;SDS011;59316;52.964;7.102;2023-07-31T19:17:06;3.10;;;1.85;;
70757;SDS011;59316;52.964;7.102;2023-07-31T19:22:27;1.65;;;1.35;;
70757;SDS011;59316;52.964;7.102;2023-07-31T19:27:48;5.25;;;1.42;;
70757;SDS011;59316;52.964;7.102;2023-07-31T19:33:17;3.88;;;1.40;;
70757;SDS011;59316;52.964;7.102;2023-07-31T19:38:38;3.28;;;1.60;;
70757;SDS011;59316;52.964;7.102;2023-07-31T19:43:59;2.78;;;1.30;;
70757;SDS011;59316;52.964;7.102;2023-07-31T19:49:20;2.38;;;1.30;;
70757;SDS011;59316;52.964;7.102;2023-07-31T19:54:41;3.00;;;1.30;;
70757;SDS011;59316;52.964;7.102;2023-07-31T20:00:03;2.42;;;1.20;;
70757;SDS011;59316;52.964;7.102;2023-07-31T20:05:29;1.70;;;1.05;;
70757;SDS011;59316;52.964;7.102;2023-07-31T20:10:49;2.47;;;1.25;;
70757;SDS011;59316;52.964;7.102;2023-07-31T20:16:11;3.55;;;1.50;;
70757;SDS011;59316;52.964;7.102;2023-07-31T20:21:32;3.03;;;1.55;;
70757;SDS011;59316;52.964;7.102;2023-07-31T20:26:53;3.40;;;1.58;;
70757;SDS011;59316;52.964;7.102;2023-07-31T20:32:14;2.05;;;1.77;;
70757;SDS011;59316;52.964;7.102;2023-07-31T20:37:35;4.18;;;2.20;;
70757;SDS011;59316;52.964;7.102;2023-07-31T20:42:57;3.10;;;2.45;;
70757;SDS011;59316;52.964;7.102;2023-07-31T20:48:18;4.45;;;2.60;;
70757;SDS011;59316;52.964;7.102;2023-07-31T20:53:40;5.30;;;2.58;;
70757;SDS011;59316;52.964;7.102;2023-07-31T20:59:01;4.25;;;2.80;;
70757;SDS011;59316;52.964;7.102;2023-07-31T21:04:22;4.80;;;2.78;;
70757;SDS011;59316;52.964;7.102;2023-07-31T21:09:43;3.78;;;2.90;;
70757;SDS011;59316;52.964;7.102;2023-07-31T21:15:06;3.90;;;2.50;;
70757;SDS011;59316;52.964;7.102;2023-07-31T21:20:28;3.22;;;2.70;;
70757;SDS011;59316;52.964;7.102;2023-07-31T21:25:49;2.70;;;2.38;;
70757;SDS011;59316;52.964;7.102;2023-07-31T21:31:14;3.30;;;2.40;;
70757;SDS011;59316;52.964;7.102;2023-07-31T21:36:35;7.15;;;2.95;;
70757;SDS011;59316;52.964;7.102;2023-07-31T21:41:57;5.63;;;3.20;;
70757;SDS011;59316;52.964;7.102;2023-07-31T21:47:18;8.25;;;4.38;;
70757;SDS011;59316;52.964;7.102;2023-07-31T21:52:39;8.80;;;4.85;;
70757;SDS011;59316;52.964;7.102;2023-07-31T21:58:00;9.23;;;5.20;;
70757;SDS011;59316;52.964;7.102;2023-07-31T22:03:21;8.50;;;5.40;;
70757;SDS011;59316;52.964;7.102;2023-07-31T22:08:42;9.25;;;5.15;;
70757;SDS011;59316;52.964;7.102;2023-07-31T22:14:04;9.90;;;5.82;;
70757;SDS011;59316;52.964;7.102;2023-07-31T22:19:25;11.82;;;5.43;;
70757;SDS011;59316;52.964;7.102;2023-07-31T22:24:46;11.60;;;4.72;;
70757;SDS011;59316;52.964;7.102;2023-07-31T22:30:07;16.83;;;5.72;;
70757;SDS011;59316;52.964;7.102;2023-07-31T22:35:31;8.30;;;4.82;;
70757;SDS011;59316;52.964;7.102;2023-07-31T22:40:52;6.95;;;4.07;;
70757;SDS011;59316;52.964;7.102;2023-07-31T22:46:13;12.65;;;4.25;;
70757;SDS011;59316;52.964;7.102;2023-07-31T22:51:34;8.93;;;4.30;;
70757;SDS011;59316;52.964;7.102;2023-07-31T22:56:56;11.40;;;4.28;;
70757;SDS011;59316;52.964;7.102;2023-07-31T23:02:17;13.02;;;5.35;;
70757;SDS011;59316;52.964;7.102;2023-07-31T23:07:38;11.23;;;5.63;;
70757;SDS011;59316;52.964;7.102;2023-07-31T23:12:59;11.32;;;5.82;;
70757;SDS011;59316;52.964;7.102;2023-07-31T23:18:20;13.25;;;7.20;;
70757;SDS011;59316;52.964;7.102;2023-07-31T23:23:41;18.05;;;8.07;;
70757;SDS011;59316;52.964;7.102;2023-07-31T23:29:02;17.58;;;9.23;;
70757;SDS011;59316;52.964;7.102;2023-07-31T23:34:23;18.55;;;9.32;;
70757;SDS011;59316;52.964;7.102;2023-07-31T23:39:44;24.00;;;10.80;;
70757;SDS011;59316;52.964;7.102;2023-07-31T23:45:06;15.07;;;9.10;;
70757;SDS011;59316;52.964;7.102;2023-07-31T23:50:31;14.70;;;9.52;;
70757;SDS011;59316;52.964;7.102;2023-07-31T23:55:52;18.48;;;10.25;;
